Decoded Metar for KMEH (MEACHAM in OR, USA) (IATA:MEH) | Meteo·Mobile Aviation Weather
aviador You're here:

KMEH Decoded Metar

MEACHAM in OR, USA
Report Time2018-12-12 00:56:00
UTC Time2018-12-12 01:35:49
Flight Rules vfr VFR
WindCalm
Visibility9999 m
Phenomena:N/A
Clouds:Scattered 047 Hf
Broken 055 Hf
Overcast 075 Hf
Expected CloudBase > 1,200 ft AGL from Temp-Dew spread
Ceiling5,500 ft
Temp00°C (ISA -8)
Dew Point-3°C (80% RH)
AAT-2.4°C
QNH1012 hPa
Density Alt2,920 ft
Elevation3,727 ft
Report Wrong Elevation
Raw Report
KMEH 120056Z AUTO 00000KT 10SM SCT047 BKN055 OVC075 00/M03 A2987
RMK AO2 SLP138 T00001028=

Extra information for KMEH:More info

Metar Taf Metar & Taf Last 4 Metars F.Rules Stats Wind Profile Meteogram Temp Stats Airport Information Weather charts Add Link Nearby VenuesMetar ALERT Operation Metar Decoded Social comments

AIRNAV info for KMEH